Time;durP1;ratioP1;P1;durP2;ratioP2;P2;SDS_P1;SDS_P2;PMS_P1;PMS_P2;Temp;Humidity;BMP_temperature;BMP_pressure;BME280_temperature;BME280_humidity;BME280_pressure;Samples;Min_cycle;Max_cycle;Signal;HPM_P1;HPM_P2
2021/11/24 00:00:12;;;;;;;36.08;21.70;;;;;;;5.96;85.79;102948.63;5050642;28;20025;-60
2021/11/24 00:02:37;;;;;;;21.42;14.20;;;;;;;5.96;85.87;102946.00;5051363;28;20479;-61
2021/11/24 00:05:03;;;;;;;31.40;18.00;;;;;;;6.02;85.60;102943.50;5050141;28;20174;-60
2021/11/24 00:07:29;;;;;;;30.42;19.42;;;;;;;6.05;85.47;102954.09;5049976;28;20052;-62
2021/11/24 00:09:54;;;;;;;26.50;16.52;;;;;;;6.09;85.39;102954.13;5034400;28;20045;-61
2021/11/24 00:12:19;;;;;;;31.50;19.38;;;;;;;6.07;85.07;102944.53;5047159;28;20040;-61
2021/11/24 00:14:45;;;;;;;32.05;18.90;;;;;;;6.12;84.99;102933.25;5048400;28;20049;-61
2021/11/24 00:17:10;;;;;;;22.77;15.50;;;;;;;6.14;85.19;102942.03;5035433;28;20447;-60
2021/11/24 00:19:35;;;;;;;28.05;18.90;;;;;;;6.15;85.09;102930.69;5049119;28;20025;-60
2021/11/24 00:22:01;;;;;;;26.63;17.60;;;;;;;6.13;85.84;102933.28;5048102;28;20108;-61
2021/11/24 00:24:26;;;;;;;24.52;15.20;;;;;;;6.22;84.55;102934.31;5049082;28;20083;-60
2021/11/24 00:26:52;;;;;;;25.77;16.58;;;;;;;6.15;83.46;102946.41;5047014;28;20025;-59
2021/11/24 00:29:17;;;;;;;16.45;10.30;;;;;;;6.11;83.90;102940.22;5062697;28;20486;-59
2021/11/24 00:31:42;;;;;;;24.08;14.30;;;;;;;6.09;84.22;102938.44;5068675;28;20430;-61
2021/11/24 00:34:08;;;;;;;27.25;16.30;;;;;;;6.02;84.77;102933.06;5049537;28;20546;-61
2021/11/24 00:36:33;;;;;;;26.92;18.58;;;;;;;6.02;85.44;102933.06;5048472;28;20040;-60
2021/11/24 00:38:58;;;;;;;22.30;14.90;;;;;;;6.03;85.37;102928.72;5051008;28;20025;-60
2021/11/24 00:41:24;;;;;;;21.85;15.88;;;;;;;6.05;85.47;102930.53;5059827;28;20024;-60
2021/11/24 00:43:49;;;;;;;21.10;11.88;;;;;;;6.10;85.50;102919.25;5057632;28;20048;-60
2021/11/24 00:46:15;;;;;;;23.73;12.52;;;;;;;6.11;85.77;102928.88;5048274;28;20479;-61
2021/11/24 00:48:41;;;;;;;23.98;12.63;;;;;;;6.22;85.63;102929.06;5048553;28;20494;-59
2021/11/24 00:51:07;;;;;;;22.77;14.45;;;;;;;6.31;84.74;102926.63;5046847;28;20064;-60
2021/11/24 00:53:38;;;;;;;24.17;15.68;;;;;;;6.27;84.52;102924.81;5048426;28;20455;-65
2021/11/24 00:56:03;;;;;;;17.52;11.05;;;;;;;6.21;84.62;102912.50;5060654;28;20029;-61
2021/11/24 00:58:29;;;;;;;28.45;16.42;;;;;;;6.15;84.94;102915.88;5068611;28;20535;-61
2021/11/24 01:00:54;;;;;;;28.52;18.60;;;;;;;6.11;85.25;102910.56;5055894;28;20024;-61
2021/11/24 01:03:19;;;;;;;17.38;10.98;;;;;;;6.14;85.04;102915.88;5047869;28;20090;-60
2021/11/24 01:05:46;;;;;;;15.75;10.80;;;;;;;6.16;84.93;102908.91;5056387;28;20016;-60
2021/11/24 01:08:13;;;;;;;17.00;11.98;;;;;;;6.18;85.04;102908.06;5066795;28;20039;-60
2021/11/24 01:10:38;;;;;;;19.15;11.48;;;;;;;6.19;85.04;102907.22;5066196;28;20031;-59
2021/11/24 01:13:04;;;;;;;25.83;17.63;;;;;;;6.18;85.24;102901.97;5066213;28;20367;-64
2021/11/24 01:15:29;;;;;;;20.77;12.00;;;;;;;6.19;85.19;102902.00;5066310;28;20463;-60
2021/11/24 01:17:55;;;;;;;27.80;13.50;;;;;;;6.19;85.40;102904.63;5065948;28;20412;-60
2021/11/24 01:20:20;;;;;;;21.25;12.02;;;;;;;6.27;85.28;102899.53;5066320;28;20028;-60
2021/11/24 01:22:46;;;;;;;23.20;15.18;;;;;;;6.34;84.94;102892.63;5047632;28;20576;-60
2021/11/24 01:25:11;;;;;;;18.80;13.15;;;;;;;6.28;84.65;102885.56;5046539;28;20471;-59
2021/11/24 01:27:36;;;;;;;18.08;10.23;;;;;;;6.23;84.75;102889.81;5046230;28;20448;-60
2021/11/24 01:30:03;;;;;;;20.23;13.40;;;;;;;6.24;84.75;102891.59;5045877;28;20395;-60
2021/11/24 01:32:28;;;;;;;23.15;15.63;;;;;;;6.17;85.15;102892.34;5059567;28;20111;-60
2021/11/24 01:34:54;;;;;;;21.88;14.40;;;;;;;6.20;84.83;102887.16;5066967;28;20127;-60
2021/11/24 01:37:19;;;;;;;26.15;13.27;;;;;;;6.23;84.91;102884.59;5066008;28;20032;-60
2021/11/24 01:39:44;;;;;;;16.73;11.68;;;;;;;6.24;84.74;102882.88;5048904;28;20048;-61
2021/11/24 01:42:10;;;;;;;26.33;16.45;;;;;;;6.20;84.66;102892.38;5046160;28;20487;-60
2021/11/24 01:44:35;;;;;;;28.38;17.85;;;;;;;6.13;85.20;102888.78;5026991;28;20427;-59
2021/11/24 01:47:03;;;;;;;26.85;17.10;;;;;;;6.11;85.08;102897.47;5031357;28;20017;-60
2021/11/24 01:49:29;;;;;;;14.43;10.27;;;;;;;6.11;85.38;102885.25;5047081;28;20618;-60
2021/11/24 01:51:56;;;;;;;23.90;15.90;;;;;;;6.11;85.38;102890.50;5043337;28;20033;-60
2021/11/24 01:54:22;;;;;;;31.42;19.00;;;;;;;6.06;85.57;102887.78;5027070;28;20033;-60
2021/11/24 01:56:47;;;;;;;29.08;19.55;;;;;;;6.03;85.75;102885.09;5025676;28;20412;-61
2021/11/24 01:59:13;;;;;;;28.42;16.15;;;;;;;6.05;85.69;102885.16;5028484;28;20024;-61
2021/11/24 02:01:41;;;;;;;22.85;12.50;;;;;;;6.13;85.34;102882.66;5046226;28;20090;-60
2021/11/24 02:04:07;;;;;;;25.35;14.55;;;;;;;6.12;85.35;102880.91;5044114;28;20025;-61
2021/11/24 02:06:32;;;;;;;25.58;15.70;;;;;;;6.11;85.26;102873.94;5046968;28;20036;-61
2021/11/24 02:08:57;;;;;;;17.77;11.88;;;;;;;6.13;85.33;102872.19;5044880;28;20523;-60
2021/11/24 02:11:23;;;;;;;33.15;19.23;;;;;;;6.11;85.38;102874.78;5046763;28;20033;-61
2021/11/24 02:13:48;;;;;;;24.23;16.08;;;;;;;6.13;85.32;102866.97;5044892;28;20073;-61
2021/11/24 02:16:13;;;;;;;26.17;16.52;;;;;;;6.12;85.41;102860.88;5047472;28;20090;-60
2021/11/24 02:18:39;;;;;;;27.38;17.60;;;;;;;6.12;85.47;102865.19;5046190;28;20021;-60
2021/11/24 02:21:04;;;;;;;25.63;16.65;;;;;;;6.11;85.56;102863.44;5044809;28;20021;-60
2021/11/24 02:23:29;;;;;;;30.75;19.58;;;;;;;6.10;85.72;102853.81;5026748;28;20032;-59
2021/11/24 02:25:55;;;;;;;16.40;11.50;;;;;;;6.13;85.58;102851.25;5042282;28;20013;-59
2021/11/24 02:28:20;;;;;;;21.75;15.15;;;;;;;6.18;85.41;102839.13;5046008;28;20025;-60
2021/11/24 02:30:46;;;;;;;26.48;15.10;;;;;;;6.19;84.97;102830.41;5043349;28;20021;-62
2021/11/24 02:33:12;;;;;;;23.75;16.40;;;;;;;6.18;85.11;102831.28;5046466;28;20510;-59
2021/11/24 02:35:37;;;;;;;18.13;12.32;;;;;;;6.18;85.17;102826.06;5044834;28;20031;-61
2021/11/24 02:38:04;;;;;;;29.60;19.27;;;;;;;6.15;85.30;102829.50;5046874;28;20032;-60
2021/11/24 02:40:33;;;;;;;30.70;19.45;;;;;;;6.12;85.52;102821.59;5045313;28;20063;-61
2021/11/24 02:42:58;;;;;;;31.13;19.25;;;;;;;6.08;85.55;102814.53;5045306;28;20078;-60
2021/11/24 02:45:24;;;;;;;32.25;20.85;;;;;;;6.04;85.70;102815.34;5044651;28;20028;-60
2021/11/24 02:47:49;;;;;;;28.50;19.98;;;;;;;6.08;85.55;102811.91;5045629;28;20083;-59
2021/11/24 02:50:15;;;;;;;35.65;18.70;;;;;;;6.08;85.77;102811.91;5045269;28;20033;-60
2021/11/24 02:52:40;;;;;;;33.25;20.00;;;;;;;6.10;85.70;102801.47;5046629;28;20057;-58
2021/11/24 02:55:06;;;;;;;29.65;19.13;;;;;;;6.09;85.71;102799.72;5045247;28;20017;-61
2021/11/24 02:57:38;;;;;;;34.20;20.30;;;;;;;6.08;85.92;102801.44;5045402;28;20029;-60
2021/11/24 03:00:11;;;;;;;20.67;11.68;;;;;;;6.14;85.63;102800.69;5044725;28;20100;-60
2021/11/24 03:02:36;;;;;;;30.08;15.77;;;;;;;6.19;85.33;102788.53;5046327;28;20518;-60
2021/11/24 03:05:01;;;;;;;24.58;15.38;;;;;;;6.18;85.51;102792.03;5044767;28;20025;-60
2021/11/24 03:07:27;;;;;;;29.10;17.15;;;;;;;6.17;85.58;102787.66;5027838;28;20494;-61
2021/11/24 03:09:52;;;;;;;17.73;11.32;;;;;;;6.24;85.36;102781.66;5045230;28;20032;-62
2021/11/24 03:12:18;;;;;;;30.48;19.63;;;;;;;6.20;85.38;102779.81;5045316;28;20052;-61
2021/11/24 03:14:43;;;;;;;22.25;13.13;;;;;;;6.23;85.53;102779.00;5045525;28;20748;-60
2021/11/24 03:17:08;;;;;;;22.95;13.88;;;;;;;6.25;85.32;102770.31;5045698;28;20387;-61
2021/11/24 03:19:34;;;;;;;17.77;12.27;;;;;;;6.29;85.31;102777.34;5045836;28;20395;-61
2021/11/24 03:21:59;;;;;;;32.08;19.17;;;;;;;6.25;85.41;102764.19;5045424;28;20031;-60
2021/11/24 03:24:24;;;;;;;31.55;19.75;;;;;;;6.22;85.80;102772.00;5044935;28;20033;-62
2021/11/24 03:26:50;;;;;;;27.23;16.42;;;;;;;6.20;85.85;102769.34;5044391;28;20479;-60
2021/11/24 03:29:15;;;;;;;26.75;16.75;;;;;;;6.20;85.80;102764.09;5045495;28;20048;-60
2021/11/24 03:31:41;;;;;;;31.63;19.13;;;;;;;6.20;85.90;102756.25;5045244;28;20033;-61
2021/11/24 03:34:06;;;;;;;22.80;14.07;;;;;;;6.20;85.56;102751.03;5045527;28;20409;-60
2021/11/24 03:36:32;;;;;;;29.63;16.80;;;;;;;6.18;85.90;102747.50;5044372;28;20033;-58
2021/11/24 03:38:58;;;;;;;26.95;17.35;;;;;;;6.19;85.94;102751.88;5045341;28;20365;-60
2021/11/24 03:41:23;;;;;;;28.77;16.42;;;;;;;6.22;85.86;102741.47;5044342;28;20464;-60
2021/11/24 03:43:48;;;;;;;24.95;16.50;;;;;;;6.21;85.86;102731.84;5045396;28;20021;-62
2021/11/24 03:46:14;;;;;;;21.52;14.38;;;;;;;6.19;85.90;102731.84;5045401;28;20029;-62
2021/11/24 03:48:39;;;;;;;32.78;19.95;;;;;;;6.18;85.93;102732.66;5046099;28;20074;-60
2021/11/24 03:51:05;;;;;;;35.80;22.10;;;;;;;6.18;86.00;102729.19;5044631;28;20142;-60
2021/11/24 03:53:30;;;;;;;29.67;15.77;;;;;;;6.17;86.15;102727.44;5044881;28;20032;-60
2021/11/24 03:55:55;;;;;;;30.75;18.08;;;;;;;6.21;86.13;102724.00;5046732;28;20029;-61
2021/11/24 03:58:21;;;;;;;30.48;19.75;;;;;;;6.17;86.14;102730.06;5049851;28;20033;-64
2021/11/24 04:00:46;;;;;;;28.70;18.15;;;;;;;6.17;85.91;102730.06;5047994;28;20028;-60
2021/11/24 04:03:11;;;;;;;20.85;13.38;;;;;;;6.20;85.81;102730.06;5050080;28;20029;-60
2021/11/24 04:05:37;;;;;;;25.05;15.55;;;;;;;6.24;85.54;102723.16;5048980;28;20049;-60
2021/11/24 04:08:02;;;;;;;29.63;17.63;;;;;;;6.24;85.35;102723.16;5047223;28;20464;-61
2021/11/24 04:10:28;;;;;;;25.77;17.98;;;;;;;6.19;85.46;102720.47;5029725;28;20029;-61
2021/11/24 04:12:53;;;;;;;31.13;19.88;;;;;;;6.18;85.56;102723.97;5046544;28;20086;-60
2021/11/24 04:15:19;;;;;;;34.03;20.95;;;;;;;6.18;85.54;102714.34;5048344;28;20052;-61
2021/11/24 04:17:45;;;;;;;24.75;14.88;;;;;;;6.18;85.42;102722.19;5043977;28;20033;-60
2021/11/24 04:20:13;;;;;;;27.92;15.38;;;;;;;6.19;85.22;102715.25;5049414;28;20017;-60
2021/11/24 04:22:39;;;;;;;21.48;12.82;;;;;;;6.15;85.34;102708.19;5029372;28;20017;-62
2021/11/24 04:25:05;;;;;;;23.52;13.80;;;;;;;6.17;85.46;102706.50;5049579;28;20044;-60
2021/11/24 04:27:31;;;;;;;25.55;14.88;;;;;;;6.18;85.11;102705.63;5048463;28;20040;-60
2021/11/24 04:29:56;;;;;;;29.20;17.90;;;;;;;6.18;85.22;102705.63;5048711;28;20128;-62
2021/11/24 04:32:23;;;;;;;28.55;19.75;;;;;;;6.18;85.17;102698.63;5049009;28;20100;-61
2021/11/24 04:34:49;;;;;;;24.02;15.20;;;;;;;6.21;84.83;102692.59;5049441;28;20048;-60
2021/11/24 04:37:14;;;;;;;31.88;19.40;;;;;;;6.21;84.91;102683.84;5048586;28;20017;-58
2021/11/24 04:39:40;;;;;;;22.38;15.02;;;;;;;6.23;84.99;102674.28;5034800;28;20380;-60
2021/11/24 04:42:05;;;;;;;28.90;19.00;;;;;;;6.24;84.80;102682.16;5027096;28;20072;-61
2021/11/24 04:44:30;;;;;;;25.55;15.90;;;;;;;6.32;84.38;102679.63;5037357;28;20055;-61
2021/11/24 04:46:56;;;;;;;27.77;16.85;;;;;;;6.27;84.36;102671.75;5048077;28;20025;-60
2021/11/24 04:49:21;;;;;;;22.98;14.32;;;;;;;6.24;84.56;102674.31;5047887;28;20437;-62
2021/11/24 04:51:46;;;;;;;30.75;19.38;;;;;;;6.20;84.64;102667.25;5048248;28;20598;-59
2021/11/24 04:54:12;;;;;;;36.97;22.75;;;;;;;6.19;85.00;102668.13;5048141;28;20523;-59
2021/11/24 04:56:37;;;;;;;30.27;19.90;;;;;;;6.16;85.03;102665.44;5047071;28;20490;-60
2021/11/24 04:59:03;;;;;;;28.73;15.70;;;;;;;6.18;84.97;102671.59;5047369;28;20025;-61
2021/11/24 05:01:29;;;;;;;31.40;20.80;;;;;;;6.20;84.78;102664.63;5029517;28;20175;-61
2021/11/24 05:03:54;;;;;;;33.20;19.10;;;;;;;6.18;84.85;102664.59;5046492;28;20173;-59
2021/11/24 05:06:21;;;;;;;34.70;22.00;;;;;;;6.19;84.76;102657.66;5047465;28;20025;-62
2021/11/24 05:08:47;;;;;;;35.22;23.35;;;;;;;6.18;84.86;102661.13;5046633;28;20497;-61
2021/11/24 05:11:14;;;;;;;26.17;16.08;;;;;;;6.19;84.92;102657.66;5047012;28;20100;-61
2021/11/24 05:13:46;;;;;;;36.65;22.73;;;;;;;6.17;84.78;102652.38;5054741;28;20077;-60
2021/11/24 05:16:12;;;;;;;33.97;19.13;;;;;;;6.21;84.79;102652.44;5046386;28;20028;-61
2021/11/24 05:18:40;;;;;;;40.88;24.33;;;;;;;6.15;84.92;102653.22;5067395;28;20033;-60
2021/11/24 05:21:14;;;;;;;38.25;23.42;;;;;;;6.10;85.18;102644.44;5047077;28;20017;-61
2021/11/24 05:23:42;;;;;;;41.72;23.95;;;;;;;6.09;85.14;102645.28;5046215;28;20151;-60
2021/11/24 05:26:08;;;;;;;31.48;20.27;;;;;;;6.12;85.13;102645.34;5041555;28;20018;-60
2021/11/24 05:28:33;;;;;;;26.77;16.50;;;;;;;6.13;84.88;102641.84;5047931;28;20119;-62
2021/11/24 05:30:59;;;;;;;40.00;24.35;;;;;;;6.10;85.23;102637.47;5047675;28;20089;-60
2021/11/24 05:33:24;;;;;;;40.60;25.17;;;;;;;6.09;85.05;102646.19;5047801;28;20475;-60
2021/11/24 05:35:50;;;;;;;39.22;21.92;;;;;;;6.09;85.18;102635.72;5047478;28;20032;-62
2021/11/24 05:38:16;;;;;;;32.10;19.80;;;;;;;6.12;85.21;102645.34;5047529;28;20467;-62
2021/11/24 05:40:41;;;;;;;45.78;26.40;;;;;;;6.12;85.06;102647.94;5045983;28;20405;-60
2021/11/24 05:43:07;;;;;;;41.13;24.20;;;;;;;6.13;85.20;102644.47;5045131;28;20104;-60
2021/11/24 05:48:00;;;;;;;53.50;26.55;;;;;;;6.14;84.93;102646.25;5045663;28;20082;-62
2021/11/24 05:50:26;;;;;;;33.17;17.70;;;;;;;6.15;84.83;102643.66;5047568;28;20032;-61
2021/11/24 05:52:53;;;;;;;34.80;21.13;;;;;;;6.13;84.86;102649.69;5046562;28;20027;-61
2021/11/24 05:55:18;;;;;;;38.42;23.50;;;;;;;6.17;84.83;102643.69;5026690;28;20352;-61
2021/11/24 05:57:44;;;;;;;48.33;27.13;;;;;;;6.17;84.75;102633.22;5047611;28;20036;-60
2021/11/24 06:00:11;;;;;;;38.50;22.30;;;;;;;6.17;84.78;102630.59;5047657;28;20033;-62
2021/11/24 06:02:36;;;;;;;34.25;20.75;;;;;;;6.20;84.64;102635.84;5029500;28;20039;-61
2021/11/24 06:05:02;;;;;;;45.85;27.38;;;;;;;6.21;84.56;102624.53;5046886;28;20025;-62
2021/11/24 06:07:27;;;;;;;37.33;22.08;;;;;;;6.19;84.30;102626.22;5047400;28;20020;-60
2021/11/24 06:09:52;;;;;;;43.20;25.42;;;;;;;6.17;84.58;102627.97;5046885;28;20119;-60
2021/11/24 06:12:18;;;;;;;37.03;21.58;;;;;;;6.14;84.77;102625.31;5046506;28;20017;-61
2021/11/24 06:14:44;;;;;;;35.95;20.88;;;;;;;6.17;84.81;102626.22;5037043;28;20041;-62
2021/11/24 06:17:10;;;;;;;47.03;28.77;;;;;;;6.16;84.57;102627.09;5045251;28;20494;-61
2021/11/24 06:19:35;;;;;;;36.70;21.85;;;;;;;6.17;84.73;102623.59;5045898;28;20029;-63
2021/11/24 06:22:01;;;;;;;36.78;20.45;;;;;;;6.16;84.67;102618.34;5046455;28;20032;-60
2021/11/24 06:24:26;;;;;;;38.65;21.27;;;;;;;6.13;84.78;102611.34;5046286;28;20029;-60
2021/11/24 06:26:52;;;;;;;48.90;28.02;;;;;;;6.13;84.79;102611.34;5046356;28;20017;-60
2021/11/24 06:29:17;;;;;;;51.95;27.20;;;;;;;6.13;84.83;102608.72;5046107;28;20036;-62
2021/11/24 06:31:42;;;;;;;52.55;32.10;;;;;;;6.12;84.91;102608.69;5046677;28;20075;-60
2021/11/24 06:34:07;;;;;;;42.47;24.77;;;;;;;6.14;84.87;102609.59;5038845;28;20028;-59
2021/11/24 06:36:33;;;;;;;49.38;28.10;;;;;;;6.15;84.84;102612.25;5021646;28;20081;-61
2021/11/24 06:38:58;;;;;;;44.75;25.65;;;;;;;6.12;84.88;102611.31;5029866;28;20056;-60
2021/11/24 06:41:23;;;;;;;52.40;32.40;;;;;;;6.06;84.99;102605.13;5045257;28;20060;-62
2021/11/24 06:43:49;;;;;;;46.10;26.13;;;;;;;6.05;85.24;102603.38;5056591;28;20032;-61
2021/11/24 06:46:14;;;;;;;52.28;30.65;;;;;;;6.04;85.25;102601.63;5047561;28;20086;-60
2021/11/24 06:48:40;;;;;;;40.40;23.70;;;;;;;6.04;85.28;102601.63;5047243;28;20438;-55
2021/11/24 06:51:05;;;;;;;54.60;31.75;;;;;;;6.06;85.16;102599.03;5054306;28;20504;-55
2021/11/24 06:53:30;;;;;;;55.45;32.80;;;;;;;6.03;85.29;102596.34;5056505;28;20048;-58
2021/11/24 06:55:56;;;;;;;50.28;26.98;;;;;;;6.09;85.06;102588.59;5034402;28;20418;-59
2021/11/24 06:58:21;;;;;;;47.05;28.40;;;;;;;6.06;85.12;102594.66;5058607;28;20040;-55
2021/11/24 07:00:46;;;;;;;39.25;22.15;;;;;;;6.05;85.11;102595.53;5055576;28;20033;-56
2021/11/24 07:03:12;;;;;;;39.08;23.80;;;;;;;6.04;85.57;102585.91;5056527;28;20458;-57
2021/11/24 07:05:37;;;;;;;52.20;32.15;;;;;;;6.04;85.42;102591.16;5054529;28;20028;-56
2021/11/24 07:08:03;;;;;;;57.03;34.95;;;;;;;6.03;85.31;102594.59;5058140;28;20450;-56
2021/11/24 07:10:29;;;;;;;36.72;21.25;;;;;;;6.06;85.23;102583.31;5035825;28;20025;-54
2021/11/24 07:12:55;;;;;;;51.65;29.73;;;;;;;6.05;85.51;102581.56;5060399;28;20609;-57
2021/11/24 07:15:21;;;;;;;49.63;29.42;;;;;;;6.02;85.63;102586.72;5051418;28;20045;-58
2021/11/24 07:17:46;;;;;;;44.20;26.90;;;;;;;6.04;85.59;102572.84;5054009;28;20026;-55
2021/11/24 07:20:12;;;;;;;67.40;36.95;;;;;;;6.05;85.51;102582.44;5056224;28;20082;-57
2021/11/24 07:22:37;;;;;;;33.20;19.67;;;;;;;6.05;85.48;102587.66;5049508;28;20559;-57
2021/11/24 07:25:03;;;;;;;50.25;29.33;;;;;;;6.05;85.58;102586.81;5043994;28;20029;-54
2021/11/24 07:27:29;;;;;;;64.82;37.28;;;;;;;6.05;85.58;102592.91;5046602;28;20108;-55
2021/11/24 07:29:54;;;;;;;51.53;31.83;;;;;;;6.05;85.71;102577.19;5047230;28;20811;-58
2021/11/24 07:32:20;;;;;;;65.55;38.08;;;;;;;6.07;85.65;102578.09;5050852;28;20029;-56
2021/11/24 07:34:45;;;;;;;59.67;34.17;;;;;;;6.07;85.61;102582.47;5049673;28;20029;-55
2021/11/24 07:37:10;;;;;;;55.28;33.33;;;;;;;6.06;85.68;102578.09;5047871;28;20029;-55
2021/11/24 07:39:35;;;;;;;45.42;24.40;;;;;;;6.14;85.29;102575.56;5050622;28;20067;-56
2021/11/24 07:42:01;;;;;;;61.28;29.95;;;;;;;6.14;85.45;102572.97;5030725;28;20534;-55
2021/11/24 07:44:26;;;;;;;61.28;32.72;;;;;;;6.15;85.40;102577.31;5049842;28;20076;-55
2021/11/24 07:46:52;;;;;;;53.92;25.00;;;;;;;6.16;85.49;102573.84;5056748;28;20036;-53
2021/11/24 07:49:17;;;;;;;73.00;40.30;;;;;;;6.13;85.57;102572.06;5055488;28;20036;-55
2021/11/24 07:51:43;;;;;;;65.20;37.20;;;;;;;6.16;85.69;102581.69;5054010;28;20029;-57
2021/11/24 07:54:08;;;;;;;69.25;39.45;;;;;;;6.16;85.54;102568.59;5049711;28;20021;-55
2021/11/24 07:56:33;;;;;;;53.50;31.30;;;;;;;6.20;85.60;102570.41;5047458;28;20033;-55
2021/11/24 07:58:59;;;;;;;65.18;34.05;;;;;;;6.24;85.25;102569.59;5051460;28;20036;-56
2021/11/24 08:01:24;;;;;;;63.08;38.03;;;;;;;6.27;85.22;102561.78;5031190;28;20048;-54
2021/11/24 08:03:49;;;;;;;56.20;34.80;;;;;;;6.28;85.28;102557.41;5042538;28;20033;-56
2021/11/24 08:06:15;;;;;;;66.85;37.30;;;;;;;6.30;85.03;102556.56;5029359;28;20029;-60
2021/11/24 08:08:40;;;;;;;57.55;35.53;;;;;;;6.30;85.03;102551.31;5029776;28;20060;-55
2021/11/24 08:11:06;;;;;;;46.85;28.50;;;;;;;6.37;84.71;102554.00;5028698;28;20464;-55
2021/11/24 08:13:31;;;;;;;55.72;35.40;;;;;;;6.39;84.76;102545.34;5031551;28;20092;-41
2021/11/24 08:15:57;;;;;;;59.72;35.83;;;;;;;6.43;84.67;102547.13;5036975;28;20037;-48
2021/11/24 08:18:22;;;;;;;55.28;33.90;;;;;;;6.46;84.45;102546.25;5020690;28;20030;-57
2021/11/24 08:20:48;;;;;;;57.45;31.27;;;;;;;6.52;84.23;102543.72;5059038;28;20062;-61
2021/11/24 08:23:13;;;;;;;58.85;34.97;;;;;;;6.53;84.07;102548.09;5056051;28;20424;-52
2021/11/24 08:25:38;;;;;;;49.50;31.20;;;;;;;6.57;84.66;102554.25;5031951;28;20460;-52
2021/11/24 08:28:04;;;;;;;57.15;35.05;;;;;;;6.68;84.20;102542.13;5023401;28;20044;-60
2021/11/24 08:30:29;;;;;;;50.85;27.90;;;;;;;6.79;83.92;102541.34;5011634;28;20035;-65
2021/11/24 08:32:55;;;;;;;54.10;33.78;;;;;;;6.80;83.26;102540.47;5029672;28;20028;-66
2021/11/24 08:35:21;;;;;;;55.28;35.08;;;;;;;6.80;83.36;102540.47;5030086;28;20029;-62
2021/11/24 08:37:46;;;;;;;53.42;32.38;;;;;;;6.81;83.24;102543.13;5028573;28;20086;-59
2021/11/24 08:40:13;;;;;;;47.33;31.70;;;;;;;6.88;83.05;102537.94;5010926;28;20029;-57
2021/11/24 08:42:39;;;;;;;48.45;31.75;;;;;;;6.89;82.66;102524.84;5025114;28;20115;-60
2021/11/24 08:45:07;;;;;;;47.90;31.77;;;;;;;6.88;82.76;102523.09;5027634;28;20035;-56
2021/11/24 08:47:33;;;;;;;47.13;29.83;;;;;;;6.94;82.62;102520.53;5026021;28;20063;-58
2021/11/24 08:49:59;;;;;;;46.70;28.92;;;;;;;7.00;82.24;102518.81;4995751;28;20131;-58
2021/11/24 08:52:24;;;;;;;51.90;32.38;;;;;;;6.97;82.35;102513.53;5028762;28;20522;-57
2021/11/24 08:54:50;;;;;;;32.60;20.42;;;;;;;7.01;82.25;102513.59;5027110;28;20417;-63
2021/11/24 08:57:15;;;;;;;47.67;30.25;;;;;;;7.00;82.45;102517.09;5025991;28;20040;-66
2021/11/24 08:59:41;;;;;;;39.90;26.30;;;;;;;7.06;82.22;102514.53;5011197;28;20025;-59
2021/11/24 09:02:07;;;;;;;50.63;30.65;;;;;;;7.14;82.57;102522.44;5025809;28;20502;-61
2021/11/24 09:04:33;;;;;;;42.30;28.38;;;;;;;7.14;82.16;102511.97;5029078;28;20028;-69
2021/11/24 09:06:58;;;;;;;44.75;29.42;;;;;;;7.21;82.02;102510.25;5026965;28;20033;-61
2021/11/24 09:09:24;;;;;;;43.47;28.40;;;;;;;7.23;81.15;102513.78;5029041;28;20035;-62
2021/11/24 09:11:49;;;;;;;37.80;24.92;;;;;;;7.31;81.22;102513.81;5025657;28;20777;-61
2021/11/24 09:14:15;;;;;;;33.38;23.63;;;;;;;7.32;80.57;102510.34;5029276;28;20451;-61
2021/11/24 09:16:40;;;;;;;38.40;24.40;;;;;;;7.26;80.74;102511.19;5026135;28;20068;-63
2021/11/24 09:19:05;;;;;;;34.95;24.65;;;;;;;7.25;80.79;102511.16;5016690;28;20034;-60
2021/11/24 09:21:30;;;;;;;36.25;24.17;;;;;;;7.28;80.75;102508.53;5030182;28;20075;-75
2021/11/24 09:24:01;;;;;;;31.90;21.65;;;;;;;7.35;80.12;102505.13;5029706;28;20104;-76
2021/11/24 09:28:54;;;;;;;24.75;17.63;;;;;;;7.43;79.39;102500.78;5022565;28;20033;-73
2021/11/24 09:31:20;;;;;;;30.25;17.17;;;;;;;7.46;79.01;102494.66;5017379;28;20064;-74
2021/11/24 09:33:45;;;;;;;24.48;16.55;;;;;;;7.52;78.32;102496.44;5023943;28;20010;-63
2021/11/24 09:36:12;;;;;;;27.85;17.45;;;;;;;7.46;78.58;102490.31;5036712;28;20623;-71
2021/11/24 09:38:38;;;;;;;25.67;19.25;;;;;;;7.40;79.11;102494.63;5034716;28;20035;-73
2021/11/24 09:41:08;;;;;;;26.63;18.00;;;;;;;7.43;78.87;102489.41;5029959;28;20107;-71
2021/11/24 09:43:37;;;;;;;27.15;17.33;;;;;;;7.44;78.74;102480.69;5032976;28;20031;-69
2021/11/24 09:46:05;;;;;;;20.15;14.80;;;;;;;7.48;78.95;102482.44;5039418;28;20103;-74
2021/11/24 09:48:31;;;;;;;23.20;16.88;;;;;;;7.50;79.05;102485.97;5017891;28;20044;-71
2021/11/24 09:50:57;;;;;;;23.25;16.70;;;;;;;7.56;77.86;102472.88;5035472;28;20017;-68
2021/11/24 09:53:24;;;;;;;26.08;16.05;;;;;;;7.59;78.09;102483.38;5025647;28;20044;-69
2021/11/24 09:55:51;;;;;;;25.25;16.17;;;;;;;7.56;78.85;102478.09;5030720;28;20120;-67
2021/11/24 09:58:17;;;;;;;20.30;15.32;;;;;;;7.54;78.81;102474.63;5024545;28;20055;-66
2021/11/24 10:00:43;;;;;;;23.83;15.88;;;;;;;7.55;78.81;102471.13;5017415;28;20753;-67
2021/11/24 10:03:10;;;;;;;20.48;15.27;;;;;;;7.56;78.04;102469.38;5043261;28;20020;-67
2021/11/24 10:05:36;;;;;;;19.63;13.30;;;;;;;7.63;77.63;102465.03;5007774;28;20029;-68
2021/11/24 10:08:03;;;;;;;19.45;13.52;;;;;;;7.66;77.19;102470.28;5010759;28;20016;-67
2021/11/24 10:10:28;;;;;;;12.23;9.25;;;;;;;7.71;76.85;102468.56;5036389;28;20107;-69
2021/11/24 10:12:55;;;;;;;16.75;11.88;;;;;;;7.77;76.28;102468.56;5037861;28;20104;-69
2021/11/24 10:15:47;;;;;;;21.13;12.68;;;;;;;7.73;75.97;102471.22;5033046;28;20499;-66
2021/11/24 10:18:35;;;;;;;17.85;12.18;;;;;;;7.79;76.05;102466.84;5016302;28;20486;-67
2021/11/24 10:21:08;;;;;;;18.23;11.52;;;;;;;7.76;76.01;102455.44;5024243;28;20035;-67
2021/11/24 10:23:47;;;;;;;20.23;11.18;;;;;;;7.77;76.10;102447.59;5028250;28;20134;-70
2021/11/24 10:26:27;;;;;;;18.03;12.00;;;;;;;7.83;75.77;102441.50;5027869;28;20119;-65
2021/11/24 10:29:03;;;;;;;14.77;11.48;;;;;;;7.90;76.02;102439.75;5032629;28;20638;-65
2021/11/24 10:31:40;;;;;;;16.73;11.23;;;;;;;7.88;76.12;102434.50;5046427;28;20025;-65
2021/11/24 10:34:17;;;;;;;14.27;9.93;;;;;;;7.95;75.89;102432.78;5027123;28;20068;-66
2021/11/24 10:36:53;;;;;;;17.08;11.38;;;;;;;7.94;75.51;102420.53;5046654;28;20040;-66
2021/11/24 10:39:19;;;;;;;13.95;10.43;;;;;;;7.91;75.54;102424.03;5045325;28;20025;-67
2021/11/24 10:41:44;;;;;;;11.77;9.93;;;;;;;7.95;74.83;102417.91;5046360;28;20539;-67
2021/11/24 10:44:10;;;;;;;13.50;9.15;;;;;;;7.95;74.49;102409.16;5031796;28;20027;-67
2021/11/24 10:46:36;;;;;;;10.43;9.00;;;;;;;7.81;74.49;102414.38;5005721;28;20414;-66
2021/11/24 10:49:08;;;;;;;17.50;9.13;;;;;;;7.83;74.53;102405.63;5026352;28;20128;-66
2021/11/24 10:51:41;;;;;;;12.65;8.05;;;;;;;7.81;74.62;102409.13;5026369;28;20029;-65
2021/11/24 10:54:18;;;;;;;11.07;8.90;;;;;;;7.85;74.53;102392.50;5026056;28;20017;-65
2021/11/24 10:57:02;;;;;;;14.60;8.63;;;;;;;7.81;73.97;102391.63;5026274;28;20071;-65
2021/11/24 10:59:28;;;;;;;11.55;8.80;;;;;;;7.77;74.61;102389.84;5024861;28;20687;-65
2021/11/24 11:02:23;;;;;;;13.00;9.18;;;;;;;7.76;74.84;102380.25;5016921;28;20057;-68
2021/11/24 11:05:17;;;;;;;11.27;8.35;;;;;;;7.74;75.16;102383.75;5015740;28;20037;-65
2021/11/24 11:07:49;;;;;;;12.50;8.13;;;;;;;7.83;74.69;102374.13;5028194;28;20026;-66
2021/11/24 11:10:23;;;;;;;14.20;8.93;;;;;;;7.80;74.40;102371.50;5017587;28;20036;-67
2021/11/24 11:12:52;;;;;;;8.70;6.88;;;;;;;7.76;74.52;102348.75;5031652;28;20498;-64
2021/11/24 11:15:30;;;;;;;11.73;8.27;;;;;;;7.78;74.16;102347.03;5015735;28;20041;-65
2021/11/24 11:17:58;;;;;;;9.63;6.93;;;;;;;7.81;74.26;102344.41;5033783;28;20076;-64